sensor_id;sensor_type;location;lat;lon;timestamp;pressure;altitude;pressure_sealevel;temperature;humidity
60817;BME280;51921;51.518;-3.188;2023-10-08T00:02:17;102119.17;;;15.54;67.27
60817;BME280;51921;51.518;-3.188;2023-10-08T00:04:43;102113.09;;;16.15;66.58
60817;BME280;51921;51.518;-3.188;2023-10-08T00:07:08;102108.49;;;16.25;65.96
60817;BME280;51921;51.518;-3.188;2023-10-08T00:09:34;102100.84;;;16.06;64.74
60817;BME280;51921;51.518;-3.188;2023-10-08T00:11:59;102105.01;;;15.64;65.92
60817;BME280;51921;51.518;-3.188;2023-10-08T00:14:24;102100.58;;;16.34;66.51
60817;BME280;51921;51.518;-3.188;2023-10-08T00:16:50;102101.46;;;15.95;64.45
60817;BME280;51921;51.518;-3.188;2023-10-08T00:19:16;102103.44;;;15.87;66.20
60817;BME280;51921;51.518;-3.188;2023-10-08T00:21:41;102103.86;;;15.85;66.30
60817;BME280;51921;51.518;-3.188;2023-10-08T00:24:07;102102.67;;;15.97;65.68
60817;BME280;51921;51.518;-3.188;2023-10-08T00:26:33;102108.18;;;15.86;65.44
60817;BME280;51921;51.518;-3.188;2023-10-08T00:28:58;102112.40;;;15.50;67.12
60817;BME280;51921;51.518;-3.188;2023-10-08T00:31:22;102113.99;;;15.30;68.46
60817;BME280;51921;51.518;-3.188;2023-10-08T00:33:48;102115.37;;;16.18;65.38
60817;BME280;51921;51.518;-3.188;2023-10-08T00:36:13;102119.75;;;15.58;68.11
60817;BME280;51921;51.518;-3.188;2023-10-08T00:38:38;102117.48;;;15.87;66.99
60817;BME280;51921;51.518;-3.188;2023-10-08T00:41:04;102121.59;;;15.90;66.82
60817;BME280;51921;51.518;-3.188;2023-10-08T00:43:29;102121.61;;;15.49;69.19
60817;BME280;51921;51.518;-3.188;2023-10-08T00:45:54;102121.84;;;16.15;67.06
60817;BME280;51921;51.518;-3.188;2023-10-08T00:48:20;102124.37;;;15.52;68.95
60817;BME280;51921;51.518;-3.188;2023-10-08T00:50:45;102119.76;;;15.09;71.27
60817;BME280;51921;51.518;-3.188;2023-10-08T00:53:11;102121.32;;;15.81;67.74
60817;BME280;51921;51.518;-3.188;2023-10-08T00:55:36;102117.80;;;15.89;67.47
60817;BME280;51921;51.518;-3.188;2023-10-08T00:58:01;102119.07;;;15.20;69.89
60817;BME280;51921;51.518;-3.188;2023-10-08T01:00:27;102116.44;;;14.71;71.66
60817;BME280;51921;51.518;-3.188;2023-10-08T01:02:52;102112.97;;;16.05;67.29
60817;BME280;51921;51.518;-3.188;2023-10-08T01:05:18;102113.27;;;16.28;66.48
60817;BME280;51921;51.518;-3.188;2023-10-08T01:07:43;102111.32;;;14.63;72.70
60817;BME280;51921;51.518;-3.188;2023-10-08T01:10:09;102115.78;;;15.50;71.13
60817;BME280;51921;51.518;-3.188;2023-10-08T01:12:34;102113.94;;;15.72;70.90
60817;BME280;51921;51.518;-3.188;2023-10-08T01:15:00;102114.61;;;14.45;74.55
60817;BME280;51921;51.518;-3.188;2023-10-08T01:17:25;102112.92;;;15.09;73.65
60817;BME280;51921;51.518;-3.188;2023-10-08T01:19:51;102116.25;;;15.80;71.40
60817;BME280;51921;51.518;-3.188;2023-10-08T01:22:16;102118.96;;;15.12;73.26
60817;BME280;51921;51.518;-3.188;2023-10-08T01:24:41;102117.55;;;15.10;73.44
60817;BME280;51921;51.518;-3.188;2023-10-08T01:27:06;102114.44;;;14.78;75.17
60817;BME280;51921;51.518;-3.188;2023-10-08T01:29:32;102113.44;;;14.62;75.81
60817;BME280;51921;51.518;-3.188;2023-10-08T01:31:57;102113.30;;;15.49;72.36
60817;BME280;51921;51.518;-3.188;2023-10-08T01:34:23;102112.90;;;15.55;72.77
60817;BME280;51921;51.518;-3.188;2023-10-08T01:36:48;102106.87;;;14.94;74.92
60817;BME280;51921;51.518;-3.188;2023-10-08T01:39:13;102105.06;;;15.43;73.47
60817;BME280;51921;51.518;-3.188;2023-10-08T01:41:39;102107.24;;;14.86;75.54
60817;BME280;51921;51.518;-3.188;2023-10-08T01:44:04;102104.27;;;14.31;77.01
60817;BME280;51921;51.518;-3.188;2023-10-08T01:46:29;102101.02;;;14.92;75.64
60817;BME280;51921;51.518;-3.188;2023-10-08T01:48:54;102097.54;;;15.26;74.81
60817;BME280;51921;51.518;-3.188;2023-10-08T01:51:20;102096.03;;;14.77;76.02
60817;BME280;51921;51.518;-3.188;2023-10-08T01:53:45;102098.72;;;15.27;74.90
60817;BME280;51921;51.518;-3.188;2023-10-08T01:56:10;102096.00;;;14.95;74.70
60817;BME280;51921;51.518;-3.188;2023-10-08T01:58:36;102095.72;;;14.99;74.77
60817;BME280;51921;51.518;-3.188;2023-10-08T02:01:01;102094.99;;;14.97;74.86
60817;BME280;51921;51.518;-3.188;2023-10-08T02:03:27;102098.09;;;14.99;75.80
60817;BME280;51921;51.518;-3.188;2023-10-08T02:05:52;102099.66;;;14.65;77.62
60817;BME280;51921;51.518;-3.188;2023-10-08T02:08:17;102095.56;;;15.13;75.67
60817;BME280;51921;51.518;-3.188;2023-10-08T02:10:43;102093.17;;;15.23;73.73
60817;BME280;51921;51.518;-3.188;2023-10-08T02:13:09;102090.18;;;14.93;75.69
60817;BME280;51921;51.518;-3.188;2023-10-08T02:15:34;102091.58;;;15.13;75.76
60817;BME280;51921;51.518;-3.188;2023-10-08T02:17:59;102091.49;;;14.96;75.81
60817;BME280;51921;51.518;-3.188;2023-10-08T02:20:24;102087.40;;;15.46;74.67
60817;BME280;51921;51.518;-3.188;2023-10-08T02:22:50;102088.41;;;15.31;73.73
60817;BME280;51921;51.518;-3.188;2023-10-08T02:25:15;102086.40;;;14.67;75.57
60817;BME280;51921;51.518;-3.188;2023-10-08T02:27:41;102086.22;;;15.02;75.72
60817;BME280;51921;51.518;-3.188;2023-10-08T02:30:07;102085.61;;;14.86;77.09
60817;BME280;51921;51.518;-3.188;2023-10-08T02:32:31;102085.58;;;15.02;75.33
60817;BME280;51921;51.518;-3.188;2023-10-08T02:34:57;102081.11;;;15.43;73.58
60817;BME280;51921;51.518;-3.188;2023-10-08T02:37:22;102080.68;;;15.46;74.31
60817;BME280;51921;51.518;-3.188;2023-10-08T02:39:47;102080.36;;;15.14;74.84
60817;BME280;51921;51.518;-3.188;2023-10-08T02:42:13;102080.20;;;14.86;77.28
60817;BME280;51921;51.518;-3.188;2023-10-08T02:44:38;102080.62;;;15.49;73.73
60817;BME280;51921;51.518;-3.188;2023-10-08T02:47:04;102078.50;;;15.16;76.08
60817;BME280;51921;51.518;-3.188;2023-10-08T02:49:29;102077.73;;;14.90;74.92
60817;BME280;51921;51.518;-3.188;2023-10-08T02:51:55;102079.91;;;14.93;76.58
60817;BME280;51921;51.518;-3.188;2023-10-08T02:54:21;102081.14;;;14.60;76.15
60817;BME280;51921;51.518;-3.188;2023-10-08T02:56:47;102074.92;;;15.20;74.17
60817;BME280;51921;51.518;-3.188;2023-10-08T02:59:11;102068.46;;;15.19;74.69
60817;BME280;51921;51.518;-3.188;2023-10-08T03:01:36;102065.06;;;15.02;74.67
60817;BME280;51921;51.518;-3.188;2023-10-08T03:04:02;102062.70;;;14.82;74.88
60817;BME280;51921;51.518;-3.188;2023-10-08T03:06:27;102058.37;;;14.63;75.83
60817;BME280;51921;51.518;-3.188;2023-10-08T03:08:52;102056.29;;;14.93;74.25
60817;BME280;51921;51.518;-3.188;2023-10-08T03:11:18;102056.01;;;14.18;77.53
60817;BME280;51921;51.518;-3.188;2023-10-08T03:13:44;102056.81;;;14.45;76.79
60817;BME280;51921;51.518;-3.188;2023-10-08T03:16:12;102059.83;;;14.68;76.86
60817;BME280;51921;51.518;-3.188;2023-10-08T03:18:35;102060.27;;;14.45;78.17
60817;BME280;51921;51.518;-3.188;2023-10-08T03:20:59;102058.75;;;14.01;78.83
60817;BME280;51921;51.518;-3.188;2023-10-08T03:23:25;102061.22;;;14.62;77.60
60817;BME280;51921;51.518;-3.188;2023-10-08T03:25:52;102058.81;;;14.64;78.36
60817;BME280;51921;51.518;-3.188;2023-10-08T03:28:15;102057.44;;;15.53;74.37
60817;BME280;51921;51.518;-3.188;2023-10-08T03:30:41;102057.60;;;15.63;73.19
60817;BME280;51921;51.518;-3.188;2023-10-08T03:33:06;102055.66;;;14.70;74.79
60817;BME280;51921;51.518;-3.188;2023-10-08T03:35:34;102053.30;;;14.97;73.71
60817;BME280;51921;51.518;-3.188;2023-10-08T03:37:57;102052.86;;;13.27;79.50
60817;BME280;51921;51.518;-3.188;2023-10-08T03:40:22;102057.84;;;14.27;79.17
60817;BME280;51921;51.518;-3.188;2023-10-08T03:42:48;102064.55;;;13.15;86.93
60817;BME280;51921;51.518;-3.188;2023-10-08T03:45:13;102066.04;;;11.55;96.74
60817;BME280;51921;51.518;-3.188;2023-10-08T03:47:39;102064.77;;;12.62;94.14
60817;BME280;51921;51.518;-3.188;2023-10-08T03:50:05;102059.15;;;13.75;87.41
60817;BME280;51921;51.518;-3.188;2023-10-08T03:52:29;102060.96;;;14.11;85.33
60817;BME280;51921;51.518;-3.188;2023-10-08T03:54:54;102058.87;;;14.83;80.12
60817;BME280;51921;51.518;-3.188;2023-10-08T03:57:20;102060.22;;;15.15;79.37
60817;BME280;51921;51.518;-3.188;2023-10-08T03:59:45;102058.96;;;14.21;84.10
60817;BME280;51921;51.518;-3.188;2023-10-08T04:02:10;102051.97;;;14.20;83.23
60817;BME280;51921;51.518;-3.188;2023-10-08T04:04:36;102053.49;;;15.09;78.70
60817;BME280;51921;51.518;-3.188;2023-10-08T04:07:01;102051.83;;;14.09;80.89
60817;BME280;51921;51.518;-3.188;2023-10-08T04:09:27;102054.36;;;14.94;77.50
60817;BME280;51921;51.518;-3.188;2023-10-08T04:11:52;102047.72;;;14.90;77.91
60817;BME280;51921;51.518;-3.188;2023-10-08T04:14:18;102046.97;;;15.17;75.62
60817;BME280;51921;51.518;-3.188;2023-10-08T04:16:43;102045.53;;;15.62;73.75
60817;BME280;51921;51.518;-3.188;2023-10-08T04:19:09;102049.19;;;15.39;73.72
60817;BME280;51921;51.518;-3.188;2023-10-08T04:21:33;102050.81;;;15.53;72.31
60817;BME280;51921;51.518;-3.188;2023-10-08T04:23:59;102049.08;;;14.80;74.10
60817;BME280;51921;51.518;-3.188;2023-10-08T04:26:24;102047.30;;;15.58;72.18
60817;BME280;51921;51.518;-3.188;2023-10-08T04:28:51;102044.15;;;15.43;72.19
60817;BME280;51921;51.518;-3.188;2023-10-08T04:31:15;102041.87;;;15.29;72.34
60817;BME280;51921;51.518;-3.188;2023-10-08T04:33:43;102046.39;;;14.36;74.99
60817;BME280;51921;51.518;-3.188;2023-10-08T04:36:06;102045.62;;;12.19;89.90
60817;BME280;51921;51.518;-3.188;2023-10-08T04:38:31;102044.01;;;12.37;91.89
60817;BME280;51921;51.518;-3.188;2023-10-08T04:40:57;102037.31;;;14.04;81.81
60817;BME280;51921;51.518;-3.188;2023-10-08T04:43:23;102036.06;;;14.55;79.41
60817;BME280;51921;51.518;-3.188;2023-10-08T04:45:47;102034.65;;;14.67;77.99
60817;BME280;51921;51.518;-3.188;2023-10-08T04:48:13;102028.21;;;15.36;74.96
60817;BME280;51921;51.518;-3.188;2023-10-08T04:50:38;102026.45;;;15.13;73.41
60817;BME280;51921;51.518;-3.188;2023-10-08T04:53:04;102025.59;;;14.83;73.59
60817;BME280;51921;51.518;-3.188;2023-10-08T04:55:29;102022.94;;;13.39;80.04
60817;BME280;51921;51.518;-3.188;2023-10-08T04:57:55;102029.32;;;13.62;80.04
60817;BME280;51921;51.518;-3.188;2023-10-08T05:00:20;102029.65;;;15.41;74.39
60817;BME280;51921;51.518;-3.188;2023-10-08T05:02:45;102032.03;;;15.23;73.58
60817;BME280;51921;51.518;-3.188;2023-10-08T05:05:11;102032.55;;;14.68;75.27
60817;BME280;51921;51.518;-3.188;2023-10-08T05:07:36;102026.93;;;13.39;77.83
60817;BME280;51921;51.518;-3.188;2023-10-08T05:10:02;102024.88;;;13.60;79.97
60817;BME280;51921;51.518;-3.188;2023-10-08T05:12:27;102025.44;;;13.58;80.68
60817;BME280;51921;51.518;-3.188;2023-10-08T05:14:52;102030.31;;;14.46;77.87
60817;BME280;51921;51.518;-3.188;2023-10-08T05:17:18;102032.06;;;13.53;79.39
60817;BME280;51921;51.518;-3.188;2023-10-08T05:19:43;102027.74;;;13.22;80.76
60817;BME280;51921;51.518;-3.188;2023-10-08T05:22:08;102029.29;;;13.00;81.20
60817;BME280;51921;51.518;-3.188;2023-10-08T05:24:33;102025.10;;;13.84;79.10
60817;BME280;51921;51.518;-3.188;2023-10-08T05:26:59;102029.72;;;12.90;82.14
60817;BME280;51921;51.518;-3.188;2023-10-08T05:29:24;102030.55;;;14.82;75.62
60817;BME280;51921;51.518;-3.188;2023-10-08T05:31:50;102033.22;;;14.25;76.45
60817;BME280;51921;51.518;-3.188;2023-10-08T05:34:15;102038.38;;;14.40;75.04
60817;BME280;51921;51.518;-3.188;2023-10-08T05:36:40;102035.77;;;14.92;74.29
60817;BME280;51921;51.518;-3.188;2023-10-08T05:39:06;102036.83;;;14.32;76.57
60817;BME280;51921;51.518;-3.188;2023-10-08T05:41:31;102039.77;;;14.49;75.86
60817;BME280;51921;51.518;-3.188;2023-10-08T05:43:57;102042.52;;;14.82;73.83
60817;BME280;51921;51.518;-3.188;2023-10-08T05:46:22;102043.66;;;13.84;77.05
60817;BME280;51921;51.518;-3.188;2023-10-08T05:48:47;102047.86;;;14.43;74.40
60817;BME280;51921;51.518;-3.188;2023-10-08T05:51:12;102047.13;;;13.45;77.52
60817;BME280;51921;51.518;-3.188;2023-10-08T05:53:38;102053.92;;;14.48;75.30
60817;BME280;51921;51.518;-3.188;2023-10-08T05:56:05;102054.37;;;14.85;73.46
60817;BME280;51921;51.518;-3.188;2023-10-08T05:58:29;102052.13;;;13.90;78.21
60817;BME280;51921;51.518;-3.188;2023-10-08T06:00:54;102052.63;;;13.32;80.24
60817;BME280;51921;51.518;-3.188;2023-10-08T06:03:19;102051.54;;;13.51;79.94
60817;BME280;51921;51.518;-3.188;2023-10-08T06:05:45;102052.38;;;13.67;76.95
60817;BME280;51921;51.518;-3.188;2023-10-08T06:08:10;102052.18;;;14.03;76.13
60817;BME280;51921;51.518;-3.188;2023-10-08T06:10:36;102053.84;;;14.29;75.17
60817;BME280;51921;51.518;-3.188;2023-10-08T06:13:02;102055.23;;;13.62;77.33
60817;BME280;51921;51.518;-3.188;2023-10-08T06:15:26;102058.21;;;14.09;75.69
60817;BME280;51921;51.518;-3.188;2023-10-08T06:17:52;102060.19;;;16.11;66.81
60817;BME280;51921;51.518;-3.188;2023-10-08T06:20:17;102059.10;;;16.58;65.59
60817;BME280;51921;51.518;-3.188;2023-10-08T06:22:43;102063.19;;;13.75;77.39
60817;BME280;51921;51.518;-3.188;2023-10-08T06:25:08;102058.07;;;11.15;91.10
60817;BME280;51921;51.518;-3.188;2023-10-08T06:27:33;102060.08;;;13.56;81.78
60817;BME280;51921;51.518;-3.188;2023-10-08T06:29:59;102063.71;;;12.66;85.27
60817;BME280;51921;51.518;-3.188;2023-10-08T06:32:24;102064.38;;;13.13;84.46
60817;BME280;51921;51.518;-3.188;2023-10-08T06:34:50;102063.00;;;12.33;86.73
60817;BME280;51921;51.518;-3.188;2023-10-08T06:37:15;102065.60;;;10.88;97.02
60817;BME280;51921;51.518;-3.188;2023-10-08T06:39:41;102067.47;;;11.27;100.00
60817;BME280;51921;51.518;-3.188;2023-10-08T06:42:06;102071.71;;;12.69;91.91
60817;BME280;51921;51.518;-3.188;2023-10-08T06:44:32;102067.37;;;12.27;91.00
60817;BME280;51921;51.518;-3.188;2023-10-08T06:46:57;102067.79;;;13.48;86.58
60817;BME280;51921;51.518;-3.188;2023-10-08T06:49:22;102062.77;;;13.64;83.58
60817;BME280;51921;51.518;-3.188;2023-10-08T06:51:48;102059.07;;;13.66;82.04
60817;BME280;51921;51.518;-3.188;2023-10-08T06:54:13;102055.16;;;14.24;78.36
60817;BME280;51921;51.518;-3.188;2023-10-08T06:56:39;102054.66;;;12.09;89.19
60817;BME280;51921;51.518;-3.188;2023-10-08T06:59:04;102051.91;;;12.43;91.58
60817;BME280;51921;51.518;-3.188;2023-10-08T07:01:30;102052.77;;;10.28;100.00
60817;BME280;51921;51.518;-3.188;2023-10-08T07:03:55;102049.05;;;11.01;100.00
60817;BME280;51921;51.518;-3.188;2023-10-08T07:06:20;102052.94;;;12.19;96.27
60817;BME280;51921;51.518;-3.188;2023-10-08T07:08:46;102053.80;;;13.44;86.13
60817;BME280;51921;51.518;-3.188;2023-10-08T07:11:12;102057.46;;;13.33;87.87
60817;BME280;51921;51.518;-3.188;2023-10-08T07:13:37;102061.28;;;13.79;84.79
60817;BME280;51921;51.518;-3.188;2023-10-08T07:16:03;102060.07;;;13.88;82.81
60817;BME280;51921;51.518;-3.188;2023-10-08T07:18:28;102062.61;;;14.37;81.95
60817;BME280;51921;51.518;-3.188;2023-10-08T07:20:54;102068.01;;;13.66;82.99
60817;BME280;51921;51.518;-3.188;2023-10-08T07:23:19;102070.73;;;13.88;81.93
60817;BME280;51921;51.518;-3.188;2023-10-08T07:25:46;102078.31;;;14.63;78.78
60817;BME280;51921;51.518;-3.188;2023-10-08T07:28:09;102084.88;;;14.28;79.65
60817;BME280;51921;51.518;-3.188;2023-10-08T07:30:36;102086.72;;;15.24;73.98
60817;BME280;51921;51.518;-3.188;2023-10-08T07:33:00;102090.11;;;15.08;74.86
60817;BME280;51921;51.518;-3.188;2023-10-08T07:35:26;102089.99;;;15.27;74.79
60817;BME280;51921;51.518;-3.188;2023-10-08T07:37:51;102094.57;;;15.54;74.39
60817;BME280;51921;51.518;-3.188;2023-10-08T07:40:17;102096.18;;;15.58;72.35
60817;BME280;51921;51.518;-3.188;2023-10-08T07:42:42;102095.02;;;15.97;71.68
60817;BME280;51921;51.518;-3.188;2023-10-08T07:45:08;102088.97;;;14.18;81.66
60817;BME280;51921;51.518;-3.188;2023-10-08T07:47:32;102084.63;;;14.02;83.14
60817;BME280;51921;51.518;-3.188;2023-10-08T07:49:58;102082.40;;;13.87;82.48
60817;BME280;51921;51.518;-3.188;2023-10-08T07:52:23;102083.91;;;14.78;81.22
60817;BME280;51921;51.518;-3.188;2023-10-08T07:54:49;102082.98;;;14.79;81.41
60817;BME280;51921;51.518;-3.188;2023-10-08T07:57:14;102087.29;;;14.69;82.13
60817;BME280;51921;51.518;-3.188;2023-10-08T07:59:40;102088.32;;;16.70;72.95
60817;BME280;51921;51.518;-3.188;2023-10-08T08:02:06;102088.57;;;16.46;74.17
60817;BME280;51921;51.518;-3.188;2023-10-08T08:04:30;102090.68;;;17.36;68.94
60817;BME280;51921;51.518;-3.188;2023-10-08T08:06:56;102088.37;;;16.14;75.52
60817;BME280;51921;51.518;-3.188;2023-10-08T08:09:21;102086.50;;;16.41;74.67
60817;BME280;51921;51.518;-3.188;2023-10-08T08:11:47;102084.40;;;17.94;69.48
60817;BME280;51921;51.518;-3.188;2023-10-08T08:14:12;102089.31;;;18.24;66.16
60817;BME280;51921;51.518;-3.188;2023-10-08T08:16:37;102088.99;;;18.56;64.26
60817;BME280;51921;51.518;-3.188;2023-10-08T08:19:03;102095.47;;;19.82;61.44
60817;BME280;51921;51.518;-3.188;2023-10-08T08:21:28;102100.78;;;20.62;59.48
60817;BME280;51921;51.518;-3.188;2023-10-08T08:23:53;102098.39;;;19.83;60.56
60817;BME280;51921;51.518;-3.188;2023-10-08T08:26:22;102093.13;;;17.89;68.12
60817;BME280;51921;51.518;-3.188;2023-10-08T08:28:44;102087.03;;;18.72;64.66
60817;BME280;51921;51.518;-3.188;2023-10-08T08:31:09;102090.04;;;18.73;63.07
60817;BME280;51921;51.518;-3.188;2023-10-08T08:33:34;102092.53;;;19.80;60.07
60817;BME280;51921;51.518;-3.188;2023-10-08T08:36:00;102095.73;;;16.46;72.10
60817;BME280;51921;51.518;-3.188;2023-10-08T08:38:25;102099.00;;;17.52;69.10
60817;BME280;51921;51.518;-3.188;2023-10-08T08:40:50;102097.77;;;16.77;76.79
60817;BME280;51921;51.518;-3.188;2023-10-08T08:43:16;102093.53;;;19.72;66.20
60817;BME280;51921;51.518;-3.188;2023-10-08T08:45:41;102092.70;;;20.34;60.60
60817;BME280;51921;51.518;-3.188;2023-10-08T08:48:07;102096.59;;;20.87;58.31
60817;BME280;51921;51.518;-3.188;2023-10-08T08:50:32;102097.65;;;23.86;51.69
60817;BME280;51921;51.518;-3.188;2023-10-08T08:52:57;102101.07;;;22.31;54.47
60817;BME280;51921;51.518;-3.188;2023-10-08T08:55:22;102102.68;;;22.69;53.56
60817;BME280;51921;51.518;-3.188;2023-10-08T08:57:48;102106.53;;;22.86;51.44
60817;BME280;51921;51.518;-3.188;2023-10-08T09:00:14;102118.56;;;24.59;48.51
60817;BME280;51921;51.518;-3.188;2023-10-08T09:02:38;102119.60;;;23.03;51.88
60817;BME280;51921;51.518;-3.188;2023-10-08T09:05:04;102116.67;;;24.03;51.65
60817;BME280;51921;51.518;-3.188;2023-10-08T09:07:29;102120.95;;;24.92;46.50
60817;BME280;51921;51.518;-3.188;2023-10-08T09:09:57;102116.31;;;23.93;49.37
60817;BME280;51921;51.518;-3.188;2023-10-08T09:12:19;102121.41;;;22.51;50.26
60817;BME280;51921;51.518;-3.188;2023-10-08T09:14:46;102122.16;;;20.62;52.50
60817;BME280;51921;51.518;-3.188;2023-10-08T09:17:10;102128.13;;;22.00;52.81
60817;BME280;51921;51.518;-3.188;2023-10-08T09:19:36;102123.57;;;21.55;54.02
60817;BME280;51921;51.518;-3.188;2023-10-08T09:22:02;102121.51;;;20.51;56.53
60817;BME280;51921;51.518;-3.188;2023-10-08T09:24:27;102131.35;;;22.40;54.54
60817;BME280;51921;51.518;-3.188;2023-10-08T09:26:52;102132.53;;;21.21;56.22
60817;BME280;51921;51.518;-3.188;2023-10-08T09:29:17;102130.11;;;20.42;56.61
60817;BME280;51921;51.518;-3.188;2023-10-08T09:31:51;102129.68;;;20.78;58.70
60817;BME280;51921;51.518;-3.188;2023-10-08T09:34:08;102131.53;;;21.21;57.50
60817;BME280;51921;51.518;-3.188;2023-10-08T09:36:33;102138.81;;;20.73;56.35
60817;BME280;51921;51.518;-3.188;2023-10-08T09:39:00;102137.24;;;22.41;53.50
60817;BME280;51921;51.518;-3.188;2023-10-08T09:41:24;102136.26;;;21.40;54.79
60817;BME280;51921;51.518;-3.188;2023-10-08T09:43:50;102129.06;;;21.00;55.67
60817;BME280;51921;51.518;-3.188;2023-10-08T09:46:19;102124.06;;;22.09;52.84
60817;BME280;51921;51.518;-3.188;2023-10-08T09:48:42;102121.16;;;20.42;57.14
60817;BME280;51921;51.518;-3.188;2023-10-08T09:51:06;102120.76;;;21.11;56.74
60817;BME280;51921;51.518;-3.188;2023-10-08T09:53:36;102118.21;;;20.83;56.40
60817;BME280;51921;51.518;-3.188;2023-10-08T09:55:57;102121.05;;;19.52;57.86
60817;BME280;51921;51.518;-3.188;2023-10-08T09:58:24;102123.67;;;20.78;56.54
60817;BME280;51921;51.518;-3.188;2023-10-08T10:00:48;102122.50;;;21.51;53.70
60817;BME280;51921;51.518;-3.188;2023-10-08T10:03:13;102126.51;;;21.95;54.15
60817;BME280;51921;51.518;-3.188;2023-10-08T10:05:38;102130.76;;;22.15;53.41
60817;BME280;51921;51.518;-3.188;2023-10-08T10:08:04;102122.15;;;21.60;54.90
60817;BME280;51921;51.518;-3.188;2023-10-08T10:10:30;102122.98;;;21.58;54.65
60817;BME280;51921;51.518;-3.188;2023-10-08T10:12:57;102120.24;;;20.93;55.80
60817;BME280;51921;51.518;-3.188;2023-10-08T10:15:20;102114.62;;;19.03;59.89
60817;BME280;51921;51.518;-3.188;2023-10-08T10:17:47;102111.83;;;19.17;64.41
60817;BME280;51921;51.518;-3.188;2023-10-08T10:20:10;102119.96;;;21.25;57.93
60817;BME280;51921;51.518;-3.188;2023-10-08T10:22:35;102127.60;;;19.58;59.44
60817;BME280;51921;51.518;-3.188;2023-10-08T10:25:02;102124.31;;;20.61;61.86
60817;BME280;51921;51.518;-3.188;2023-10-08T10:27:26;102123.25;;;19.05;64.23
60817;BME280;51921;51.518;-3.188;2023-10-08T10:29:51;102116.12;;;19.77;63.34
60817;BME280;51921;51.518;-3.188;2023-10-08T10:32:16;102112.61;;;20.87;59.87
60817;BME280;51921;51.518;-3.188;2023-10-08T10:34:43;102119.29;;;20.23;60.13
60817;BME280;51921;51.518;-3.188;2023-10-08T10:37:07;102120.36;;;19.51;66.80
60817;BME280;51921;51.518;-3.188;2023-10-08T10:39:33;102116.47;;;21.37;59.37
60817;BME280;51921;51.518;-3.188;2023-10-08T10:41:59;102114.64;;;22.30;58.84
60817;BME280;51921;51.518;-3.188;2023-10-08T10:44:23;102114.53;;;22.18;58.04
60817;BME280;51921;51.518;-3.188;2023-10-08T10:46:48;102116.68;;;19.53;62.83
60817;BME280;51921;51.518;-3.188;2023-10-08T10:49:13;102124.56;;;20.18;61.66
60817;BME280;51921;51.518;-3.188;2023-10-08T10:51:39;102125.46;;;18.51;67.20
60817;BME280;51921;51.518;-3.188;2023-10-08T10:54:04;102126.01;;;17.53;71.11
60817;BME280;51921;51.518;-3.188;2023-10-08T10:56:29;102125.90;;;20.04;63.52
60817;BME280;51921;51.518;-3.188;2023-10-08T10:58:59;102128.03;;;22.24;60.59
60817;BME280;51921;51.518;-3.188;2023-10-08T11:01:23;102129.44;;;21.97;58.49
60817;BME280;51921;51.518;-3.188;2023-10-08T11:03:45;102128.89;;;23.31;54.40
60817;BME280;51921;51.518;-3.188;2023-10-08T11:06:10;102121.17;;;22.80;54.23
60817;BME280;51921;51.518;-3.188;2023-10-08T11:08:36;102123.77;;;22.33;55.24
60817;BME280;51921;51.518;-3.188;2023-10-08T11:11:02;102121.21;;;21.33;57.77
60817;BME280;51921;51.518;-3.188;2023-10-08T11:13:26;102120.64;;;21.30;60.24
60817;BME280;51921;51.518;-3.188;2023-10-08T11:15:52;102119.33;;;21.31;57.08
60817;BME280;51921;51.518;-3.188;2023-10-08T11:18:20;102124.79;;;20.32;63.23
60817;BME280;51921;51.518;-3.188;2023-10-08T11:20:43;102123.58;;;21.87;61.08
60817;BME280;51921;51.518;-3.188;2023-10-08T11:23:08;102121.58;;;21.18;61.97
60817;BME280;51921;51.518;-3.188;2023-10-08T11:25:33;102124.20;;;22.21;57.92
60817;BME280;51921;51.518;-3.188;2023-10-08T11:27:59;102118.35;;;21.63;58.09
60817;BME280;51921;51.518;-3.188;2023-10-08T11:30:24;102120.42;;;22.67;56.35
60817;BME280;51921;51.518;-3.188;2023-10-08T11:32:49;102125.86;;;23.05;56.07
60817;BME280;51921;51.518;-3.188;2023-10-08T11:35:15;102118.19;;;23.88;52.04
60817;BME280;51921;51.518;-3.188;2023-10-08T11:37:45;102116.76;;;22.13;56.72
60817;BME280;51921;51.518;-3.188;2023-10-08T11:40:06;102113.91;;;21.38;57.69
60817;BME280;51921;51.518;-3.188;2023-10-08T11:42:30;102110.02;;;22.86;53.80
60817;BME280;51921;51.518;-3.188;2023-10-08T11:44:56;102104.31;;;23.47;52.62
60817;BME280;51921;51.518;-3.188;2023-10-08T11:47:21;102104.17;;;23.04;55.07
60817;BME280;51921;51.518;-3.188;2023-10-08T11:49:46;102095.84;;;22.99;54.34
60817;BME280;51921;51.518;-3.188;2023-10-08T11:52:11;102096.51;;;22.41;55.65
60817;BME280;51921;51.518;-3.188;2023-10-08T11:54:37;102092.11;;;23.33;53.16
60817;BME280;51921;51.518;-3.188;2023-10-08T11:57:02;102088.93;;;24.02;51.59
60817;BME280;51921;51.518;-3.188;2023-10-08T11:59:27;102085.91;;;23.82;51.01
60817;BME280;51921;51.518;-3.188;2023-10-08T12:01:52;102078.82;;;23.73;49.95
60817;BME280;51921;51.518;-3.188;2023-10-08T12:04:18;102076.30;;;23.19;52.94
60817;BME280;51921;51.518;-3.188;2023-10-08T12:06:43;102074.02;;;23.90;50.02
60817;BME280;51921;51.518;-3.188;2023-10-08T12:09:08;102072.35;;;23.68;49.68
60817;BME280;51921;51.518;-3.188;2023-10-08T12:11:34;102072.95;;;21.93;52.60
60817;BME280;51921;51.518;-3.188;2023-10-08T12:14:04;102070.62;;;23.21;49.54
60817;BME280;51921;51.518;-3.188;2023-10-08T12:16:25;102074.39;;;22.42;52.48
60817;BME280;51921;51.518;-3.188;2023-10-08T12:18:50;102073.34;;;23.11;51.39
60817;BME280;51921;51.518;-3.188;2023-10-08T12:21:15;102068.83;;;23.24;52.56
60817;BME280;51921;51.518;-3.188;2023-10-08T12:23:41;102069.26;;;20.99;57.04
60817;BME280;51921;51.518;-3.188;2023-10-08T12:26:06;102065.20;;;21.72;56.84
60817;BME280;51921;51.518;-3.188;2023-10-08T12:28:31;102072.13;;;22.71;52.38
60817;BME280;51921;51.518;-3.188;2023-10-08T12:30:56;102069.34;;;22.94;52.70